createdAt,value
2023-05-23T00:00:38.658Z,101810.81
2023-05-23T00:03:06.553Z,101805.03
2023-05-23T00:05:34.442Z,101799.84
2023-05-23T00:08:02.401Z,101801.97
2023-05-23T00:10:30.167Z,101809.06
2023-05-23T00:12:58.169Z,101803.84
2023-05-23T00:15:27.429Z,101808.41
2023-05-23T00:17:55.265Z,101810.56
2023-05-23T00:20:23.206Z,101813.53
2023-05-23T00:22:50.993Z,101816.50
2023-05-23T00:25:21.996Z,101816.44
2023-05-23T00:27:49.775Z,101818.84
2023-05-23T00:30:17.786Z,101822.63
2023-05-23T00:32:46.968Z,101828.56
2023-05-23T00:35:14.752Z,101822.56
2023-05-23T00:37:43.862Z,101821.97
2023-05-23T00:40:12.671Z,101825.19
2023-05-23T00:42:40.789Z,101818.34
2023-05-23T00:45:09.412Z,101820.75
2023-05-23T00:47:37.325Z,101817.22
2023-05-23T00:50:08.450Z,101822.31
2023-05-23T00:52:37.114Z,101815.72
2023-05-23T00:55:06.101Z,101820.59
2023-05-23T00:57:34.433Z,101824.38
2023-05-23T01:00:02.490Z,101825.47
2023-05-23T01:02:33.614Z,101837.16
2023-05-23T01:05:02.484Z,101836.59
2023-05-23T01:07:31.733Z,101818.44
2023-05-23T01:09:59.812Z,101838.41
2023-05-23T01:12:35.447Z,101833.22
2023-05-23T01:15:08.758Z,101838.91
2023-05-23T01:17:56.316Z,101838.56
2023-05-23T01:20:29.838Z,101839.63
2023-05-23T01:23:22.393Z,101843.69
2023-05-23T01:26:05.186Z,101842.75
2023-05-23T01:28:38.962Z,101848.78
2023-05-23T01:31:11.288Z,101848.44
2023-05-23T01:33:41.087Z,101859.81
2023-05-23T01:36:10.058Z,101852.63
2023-05-23T01:38:37.860Z,101864.91
2023-05-23T01:41:05.679Z,101863.84
2023-05-23T01:43:35.238Z,101861.88
2023-05-23T01:46:04.593Z,101870.75
2023-05-23T01:48:33.261Z,101865.81
2023-05-23T01:51:01.195Z,101867.47
2023-05-23T01:53:30.289Z,101868.88
2023-05-23T01:55:58.605Z,101863.66
2023-05-23T01:58:26.435Z,101865.81
2023-05-23T02:00:55.699Z,101863.09
2023-05-23T02:03:23.767Z,101855.88
2023-05-23T02:05:51.878Z,101854.72
2023-05-23T02:08:19.634Z,101873.38
2023-05-23T02:10:47.473Z,101876.09
2023-05-23T02:13:15.238Z,101879.03
2023-05-23T02:15:43.075Z,101884.47
2023-05-23T02:18:13.081Z,101881.75
2023-05-23T02:20:41.213Z,101887.44
2023-05-23T02:23:09.123Z,101883.88
2023-05-23T02:25:37.048Z,101883.31
2023-05-23T02:28:04.902Z,101889.56
2023-05-23T02:30:32.703Z,101891.69
2023-05-23T02:33:00.489Z,101892.78
2023-05-23T02:35:29.621Z,101896.78
2023-05-23T02:37:57.384Z,101895.38
2023-05-23T02:40:25.143Z,101897.53
2023-05-23T02:42:52.900Z,101892.34
2023-05-23T02:45:20.777Z,101898.25
2023-05-23T02:47:48.501Z,101901.44
2023-05-23T02:50:16.657Z,101892.13
2023-05-23T02:52:45.816Z,101886.94
2023-05-23T02:55:13.596Z,101897.22
2023-05-23T02:57:41.380Z,101899.94
2023-05-23T03:00:12.022Z,101899.69
2023-05-23T03:02:39.938Z,101894.25
2023-05-23T03:05:08.738Z,101892.63
2023-05-23T03:07:36.721Z,101892.63
2023-05-23T03:10:06.868Z,101865.75
2023-05-23T03:12:34.667Z,101897.16
2023-05-23T03:15:02.390Z,101891.63
2023-05-23T03:17:30.127Z,101889.13
2023-05-23T03:19:57.920Z,101889.13
2023-05-23T03:22:25.650Z,101899.19
2023-05-23T03:24:53.416Z,101904.03
2023-05-23T03:27:22.566Z,101903.69
2023-05-23T03:29:50.282Z,101906.41
2023-05-23T03:32:18.044Z,101909.94
2023-05-23T03:34:46.134Z,101906.41
2023-05-23T03:37:13.880Z,101911.72
2023-05-23T03:39:41.618Z,101910.91
2023-05-23T03:42:09.403Z,101908.19
2023-05-23T03:44:38.647Z,101913.03
2023-05-23T03:47:07.185Z,101906.56
2023-05-23T03:49:35.080Z,101911.63
2023-05-23T03:52:02.808Z,101909.50
2023-05-23T03:54:30.559Z,101910.91
2023-05-23T03:56:58.334Z,101913.63
2023-05-23T03:59:26.066Z,101909.50
2023-05-23T04:01:55.379Z,101917.63
2023-05-23T04:04:25.120Z,101921.41
2023-05-23T04:06:53.297Z,101923.31
2023-05-23T04:09:21.058Z,101926.25
2023-05-23T04:11:49.209Z,101926.25
2023-05-23T04:14:17.421Z,101929.22
2023-05-23T04:16:45.239Z,101926.97
2023-05-23T04:19:14.388Z,101933.00
2023-05-23T04:21:42.208Z,101936.53
2023-05-23T04:24:09.948Z,101931.59
2023-05-23T04:26:37.769Z,101935.38
2023-05-23T04:29:06.310Z,101942.09
2023-05-23T04:31:35.256Z,101939.16
2023-05-23T04:34:03.839Z,101946.47
2023-05-23T04:36:33.012Z,101947.53
2023-05-23T04:39:00.751Z,101942.34
2023-05-23T04:41:28.523Z,101946.94
2023-05-23T04:43:58.511Z,101947.75
2023-05-23T04:46:26.878Z,101947.19
2023-05-23T04:48:55.045Z,101952.03
2023-05-23T04:51:22.912Z,101954.97
2023-05-23T04:53:52.851Z,101960.63
2023-05-23T04:56:22.287Z,101959.22
2023-05-23T04:58:50.190Z,101960.75
2023-05-23T05:01:18.003Z,101958.03
2023-05-23T05:03:45.863Z,101960.16
2023-05-23T05:06:14.698Z,101958.50
2023-05-23T05:08:42.488Z,101968.78
2023-05-23T05:11:11.933Z,101970.91
2023-05-23T05:13:39.671Z,101970.06
2023-05-23T05:16:07.896Z,101978.94
2023-05-23T05:18:36.516Z,101983.16
2023-05-23T05:21:04.571Z,101984.91
2023-05-23T05:23:33.329Z,101985.97
2023-05-23T05:26:01.615Z,101985.13
2023-05-23T05:28:30.715Z,101988.91
2023-05-23T05:30:58.998Z,102001.44
2023-05-23T05:33:28.426Z,101987.84
2023-05-23T05:35:56.294Z,101992.09
2023-05-23T05:38:24.040Z,102002.94
2023-05-23T05:40:51.777Z,102002.13
2023-05-23T05:43:19.607Z,102005.66
2023-05-23T05:45:48.732Z,102004.84
2023-05-23T05:48:16.622Z,102007.78
2023-05-23T05:50:45.524Z,102000.34
2023-05-23T05:53:13.660Z,102020.63
2023-05-23T05:55:41.470Z,102008.13
2023-05-23T05:58:09.199Z,102010.25
2023-05-23T06:00:42.301Z,102005.03
2023-05-23T06:03:12.602Z,102018.25
2023-05-23T06:05:40.487Z,102017.66
2023-05-23T06:08:08.495Z,102026.25
2023-05-23T06:10:39.545Z,102039.22
2023-05-23T06:13:07.591Z,102035.91
2023-05-23T06:15:35.476Z,102037.56
2023-05-23T06:18:03.248Z,102043.00
2023-05-23T06:20:32.372Z,102051.13
2023-05-23T06:23:00.309Z,102049.94
2023-05-23T06:25:28.359Z,102042.25
2023-05-23T06:27:56.138Z,102048.75
2023-05-23T06:30:24.368Z,102051.91
2023-05-23T06:32:52.197Z,102056.28
2023-05-23T06:35:19.958Z,102060.28
2023-05-23T06:37:49.107Z,102054.94
2023-05-23T06:40:16.958Z,102056.69
2023-05-23T06:42:44.792Z,102056.31
2023-05-23T06:45:15.766Z,102065.88
2023-05-23T06:47:45.670Z,102053.47
2023-05-23T06:50:13.622Z,102070.84
2023-05-23T06:52:42.747Z,102082.28
2023-05-23T06:55:14.538Z,102076.03
2023-05-23T06:57:42.341Z,102082.28
2023-05-23T07:00:11.538Z,102083.94
2023-05-23T07:02:39.389Z,102092.31
2023-05-23T07:05:07.895Z,102093.38
2023-05-23T07:07:35.705Z,102091.47
2023-05-23T07:10:03.611Z,102097.50
2023-05-23T07:12:34.757Z,102097.50
2023-05-23T07:15:02.920Z,102101.06
2023-05-23T07:17:30.875Z,102105.88
2023-05-23T07:19:58.678Z,102106.09
2023-05-23T07:22:26.893Z,102107.16
2023-05-23T07:24:54.836Z,102107.97
2023-05-23T07:27:22.717Z,102113.41
2023-05-23T07:29:51.919Z,102099.31
2023-05-23T07:32:19.764Z,102118.59
2023-05-23T07:34:47.519Z,102116.94
2023-05-23T07:37:15.282Z,102120.13
2023-05-23T07:39:43.037Z,102109.94
2023-05-23T07:42:10.851Z,102122.06
2023-05-23T07:44:38.957Z,102105.50
2023-05-23T07:47:08.122Z,102124.56
2023-05-23T07:49:35.946Z,102129.97
2023-05-23T07:52:03.803Z,102129.38
2023-05-23T07:54:31.564Z,102132.91
2023-05-23T07:56:59.371Z,102136.69
2023-05-23T07:59:27.206Z,102132.31
2023-05-23T08:01:55.020Z,102141.50
2023-05-23T08:04:24.251Z,102141.28
2023-05-23T08:07:00.792Z,102154.38
2023-05-23T08:09:32.562Z,102141.06
2023-05-23T08:12:00.375Z,102144.22
2023-05-23T08:14:42.403Z,102151.53
2023-05-23T08:17:16.746Z,102156.94
2023-05-23T08:19:46.150Z,102158.59
2023-05-23T08:22:13.981Z,102154.25
2023-05-23T08:24:41.746Z,102150.09
2023-05-23T08:27:09.590Z,102151.38
2023-05-23T08:29:37.446Z,102153.03
2023-05-23T08:32:05.694Z,102147.00
2023-05-23T08:34:33.588Z,102163.13
2023-05-23T08:37:02.722Z,102153.78
2023-05-23T08:39:30.529Z,102160.25
2023-05-23T08:41:58.353Z,102152.94
2023-05-23T08:44:26.202Z,102147.06
2023-05-23T08:46:55.008Z,102165.59
2023-05-23T08:49:24.066Z,102161.59
2023-05-23T08:51:56.733Z,102163.50
2023-05-23T08:54:27.132Z,102168.69
2023-05-23T08:56:54.903Z,102167.72
2023-05-23T08:59:23.658Z,102162.50
2023-05-23T09:01:53.235Z,102169.38
2023-05-23T09:04:21.237Z,102168.31
2023-05-23T09:06:49.079Z,102169.13
2023-05-23T09:09:17.392Z,102176.00
2023-05-23T09:11:47.572Z,102171.19
2023-05-23T09:14:18.060Z,102175.53
2023-05-23T09:16:49.277Z,102155.81
2023-05-23T09:19:17.106Z,102177.81
2023-05-23T09:21:45.378Z,102165.16
2023-05-23T09:24:13.211Z,102182.19
2023-05-23T09:26:41.045Z,102191.59
2023-05-23T09:29:10.134Z,102181.56
2023-05-23T09:31:37.941Z,102183.22
2023-05-23T09:34:06.953Z,102181.13
2023-05-23T09:36:36.485Z,102194.22
2023-05-23T09:39:06.399Z,102195.06
2023-05-23T09:41:35.580Z,102185.72
2023-05-23T09:44:07.216Z,102200.94
2023-05-23T09:46:38.048Z,102197.63
2023-05-23T09:49:17.348Z,102190.31
2023-05-23T09:51:45.655Z,102194.91
2023-05-23T09:54:13.710Z,102200.09
2023-05-23T09:56:43.717Z,102196.34
2023-05-23T09:59:14.627Z,102194.91
2023-05-23T10:01:48.896Z,102197.00
2023-05-23T10:04:21.918Z,102203.72
2023-05-23T10:06:53.280Z,102197.91
2023-05-23T10:09:24.262Z,102206.66
2023-05-23T10:12:31.541Z,102198.50
2023-05-23T10:15:04.626Z,102199.13
2023-05-23T10:17:41.050Z,102202.44
2023-05-23T10:20:12.655Z,102198.66
2023-05-23T10:22:41.749Z,102199.28
2023-05-23T10:25:10.922Z,102201.16
2023-05-23T10:27:39.385Z,102205.75
2023-05-23T10:30:08.534Z,102196.56
2023-05-23T10:32:40.548Z,102192.56
2023-05-23T10:35:16.722Z,102192.34
2023-05-23T10:37:51.090Z,102185.72
2023-05-23T10:40:25.648Z,102195.44
2023-05-23T10:43:01.306Z,102192.50
2023-05-23T10:45:29.521Z,102195.00
2023-05-23T10:48:01.515Z,102190.63
2023-05-23T10:50:34.011Z,102198.09
2023-05-23T10:53:03.191Z,102189.94
2023-05-23T10:55:33.674Z,102194.69
2023-05-23T10:58:11.879Z,102189.28
2023-05-23T11:00:40.002Z,102185.50
2023-05-23T11:03:11.618Z,102184.44
2023-05-23T11:05:49.196Z,102185.06
2023-05-23T11:08:17.886Z,102196.72
2023-05-23T11:11:01.158Z,102204.63
2023-05-23T11:13:56.297Z,102195.22
2023-05-23T11:16:28.960Z,102198.31
2023-05-23T11:19:28.041Z,102186.19
2023-05-23T11:22:01.154Z,102185.72
2023-05-23T11:24:52.248Z,102189.03
2023-05-23T11:27:27.468Z,102192.59
2023-05-23T11:30:00.335Z,102183.00
2023-05-23T11:32:30.754Z,102192.81
2023-05-23T11:35:02.499Z,102189.03
2023-05-23T11:37:31.015Z,102184.44
2023-05-23T11:39:59.283Z,102187.75
2023-05-23T11:42:27.152Z,102198.97
2023-05-23T11:44:55.338Z,102182.94
2023-05-23T11:47:23.156Z,102191.44
2023-05-23T11:49:50.923Z,102188.28
2023-05-23T11:52:20.089Z,102192.19
2023-05-23T11:54:47.889Z,102199.03
2023-05-23T11:57:15.656Z,102182.75
2023-05-23T11:59:43.672Z,102195.03
2023-05-23T12:02:11.586Z,102191.06
2023-05-23T12:04:39.585Z,102204.38
2023-05-23T12:07:08.387Z,102198.72
2023-05-23T12:09:44.522Z,102200.16
2023-05-23T12:12:13.641Z,102202.41
2023-05-23T12:14:44.837Z,102191.13
2023-05-23T12:17:13.782Z,102193.63
2023-05-23T12:19:46.691Z,102196.69
2023-05-23T12:22:14.477Z,102198.97
2023-05-23T12:24:48.150Z,102205.44
2023-05-23T12:27:18.590Z,102194.81
2023-05-23T12:29:52.592Z,102200.47
2023-05-23T12:32:20.506Z,102204.03
2023-05-23T12:34:50.329Z,102202.72
2023-05-23T12:37:20.304Z,102208.75
2023-05-23T12:39:49.733Z,102213.50
2023-05-23T12:42:17.565Z,102214.94
2023-05-23T12:44:46.178Z,102209.03
2023-05-23T12:47:15.083Z,102214.00
2023-05-23T12:49:44.809Z,102218.16
2023-05-23T12:52:12.678Z,102222.53
2023-05-23T12:54:40.556Z,102220.63
2023-05-23T12:57:09.832Z,102229.38
2023-05-23T12:59:37.558Z,102235.88
2023-05-23T13:02:05.419Z,102226.91
2023-05-23T13:04:33.262Z,102230.44
2023-05-23T13:07:01.133Z,102232.09
2023-05-23T13:09:28.862Z,102231.03
2023-05-23T13:11:56.832Z,102225.16
2023-05-23T13:14:25.980Z,102229.50
2023-05-23T13:16:53.813Z,102228.22
2023-05-23T13:19:21.676Z,102224.44
2023-05-23T13:21:50.086Z,102229.88
2023-05-23T13:24:18.075Z,102221.97
2023-05-23T13:26:45.901Z,102225.06
2023-05-23T13:29:13.831Z,102225.88
2023-05-23T13:31:43.043Z,102220.22
2023-05-23T13:34:11.002Z,102214.53
2023-05-23T13:36:38.826Z,102227.06
2023-05-23T13:39:07.125Z,102219.75
2023-05-23T13:41:34.928Z,102220.34
2023-05-23T13:44:02.710Z,102217.63
2023-05-23T13:46:30.820Z,102213.84
2023-05-23T13:49:00.041Z,102210.06
2023-05-23T13:51:27.852Z,102223.44
2023-05-23T13:53:55.694Z,102218.59
2023-05-23T13:56:24.402Z,102213.75
2023-05-23T13:58:52.185Z,102224.16
2023-05-23T14:01:20.024Z,102215.19
2023-05-23T14:03:47.852Z,102223.09
2023-05-23T14:06:17.023Z,102222.03
2023-05-23T14:08:44.810Z,102213.66
2023-05-23T14:11:12.561Z,102207.16
2023-05-23T14:13:40.376Z,102213.19
2023-05-23T14:16:08.258Z,102217.56
2023-05-23T14:18:36.026Z,102220.28
2023-05-23T14:21:03.820Z,102221.66
2023-05-23T14:23:34.068Z,102222.25
2023-05-23T14:26:01.899Z,102218.38
2023-05-23T14:28:29.709Z,102214.00
2023-05-23T14:30:59.083Z,102222.75
2023-05-23T14:33:27.107Z,102212.00
2023-05-23T14:35:54.922Z,102227.69
2023-05-23T14:38:22.661Z,102226.16
2023-05-23T14:40:51.806Z,102224.03
2023-05-23T14:43:19.601Z,102234.69
2023-05-23T14:45:47.447Z,102222.53
2023-05-23T14:48:15.489Z,102234.22
2023-05-23T14:50:43.459Z,102217.09
2023-05-23T14:53:11.232Z,102220.63
2023-05-23T14:55:39.119Z,102215.41
2023-05-23T14:58:08.367Z,102213.53
2023-05-23T15:00:36.073Z,102210.81
2023-05-23T15:03:04.789Z,102210.22
2023-05-23T15:05:32.795Z,102213.78
2023-05-23T15:08:00.562Z,102213.78
2023-05-23T15:10:28.307Z,102211.88
2023-05-23T15:12:56.213Z,102207.28
2023-05-23T15:15:27.085Z,102202.91
2023-05-23T15:17:54.896Z,102205.63
2023-05-23T15:20:22.702Z,102201.25
2023-05-23T15:22:50.429Z,102196.63
2023-05-23T15:25:27.002Z,102203.13
2023-05-23T15:28:01.862Z,102207.16
2023-05-23T15:30:31.130Z,102204.78
2023-05-23T15:33:01.355Z,102207.50
2023-05-23T15:35:29.640Z,102187.19
2023-05-23T15:37:57.463Z,102204.31
2023-05-23T15:40:25.188Z,102208.47
2023-05-23T15:42:52.986Z,102212.59
2023-05-23T15:45:20.854Z,102207.75
2023-05-23T15:47:50.042Z,102208.59
2023-05-23T15:50:18.865Z,102202.31
2023-05-23T15:52:46.646Z,102202.31
2023-05-23T15:55:14.449Z,102208.81
2023-05-23T15:57:42.189Z,102208.00
2023-05-23T16:00:11.049Z,102208.00
2023-05-23T16:02:39.074Z,102211.53
2023-05-23T16:05:09.124Z,102215.31
2023-05-23T16:07:36.924Z,102218.28
2023-05-23T16:10:05.082Z,102215.41
2023-05-23T16:12:32.830Z,102215.06
2023-05-23T16:15:02.502Z,102215.75
2023-05-23T16:17:30.286Z,102220.59
2023-05-23T16:19:58.071Z,102217.06
2023-05-23T16:22:27.187Z,102216.22
2023-05-23T16:24:55.613Z,102213.50
2023-05-23T16:27:24.228Z,102220.38
2023-05-23T16:29:51.997Z,102228.28
2023-05-23T16:32:19.754Z,102217.66
2023-05-23T16:34:52.839Z,102220.84
2023-05-23T16:37:21.971Z,102227.38
2023-05-23T16:39:51.124Z,102216.50
2023-05-23T16:42:18.967Z,102216.72
2023-05-23T16:44:46.835Z,102224.06
2023-05-23T16:47:14.636Z,102217.78
2023-05-23T16:49:42.452Z,102223.47
2023-05-23T16:52:10.245Z,102225.59
2023-05-23T16:54:38.058Z,102228.31
2023-05-23T16:57:07.722Z,102221.81
2023-05-23T16:59:35.564Z,102207.72
2023-05-23T17:02:03.486Z,102233.50
2023-05-23T17:04:31.312Z,102220.16
2023-05-23T17:06:59.037Z,102229.34
2023-05-23T17:09:26.789Z,102227.69
2023-05-23T17:11:54.658Z,102229.81
2023-05-23T17:14:23.787Z,102225.69
2023-05-23T17:16:51.566Z,102233.84
2023-05-23T17:19:19.378Z,102226.75
2023-05-23T17:21:47.205Z,102226.75
2023-05-23T17:24:15.065Z,102240.56
2023-05-23T17:26:42.883Z,102235.34
2023-05-23T17:29:10.847Z,102230.75
2023-05-23T17:31:40.096Z,102228.03
2023-05-23T17:34:07.952Z,102234.16
2023-05-23T17:36:36.033Z,102232.75
2023-05-23T17:39:03.855Z,102229.66
2023-05-23T17:41:31.809Z,102241.22
2023-05-23T17:43:59.614Z,102233.75
2023-05-23T17:46:27.411Z,102230.44
2023-05-23T17:48:56.590Z,102235.03
2023-05-23T17:51:24.559Z,102241.31
2023-05-23T17:53:53.805Z,102237.53
2023-05-23T17:56:23.280Z,102251.72
2023-05-23T17:58:51.369Z,102246.28
2023-05-23T18:01:19.697Z,102242.50
2023-05-23T18:03:48.956Z,102244.97
2023-05-23T18:06:18.329Z,102247.69
2023-05-23T18:08:46.067Z,102258.78
2023-05-23T18:11:14.114Z,102256.53
2023-05-23T18:13:41.846Z,102257.13
2023-05-23T18:16:09.631Z,102255.03
2023-05-23T18:18:37.346Z,102255.03
2023-05-23T18:21:06.188Z,102260.69
2023-05-23T18:23:35.584Z,102268.00
2023-05-23T18:26:03.644Z,102266.34
2023-05-23T18:28:31.475Z,102269.28
2023-05-23T18:30:59.231Z,102274.72
2023-05-23T18:33:27.699Z,102272.47
2023-05-23T18:35:55.648Z,102275.63
2023-05-23T18:38:23.400Z,102274.81
2023-05-23T18:40:52.738Z,102273.16
2023-05-23T18:43:21.049Z,102269.00
2023-05-23T18:45:48.801Z,102271.13
2023-05-23T18:48:16.727Z,102268.41
2023-05-23T18:50:44.683Z,102266.75
2023-05-23T18:53:12.634Z,102276.31
2023-05-23T18:55:40.365Z,102266.75
2023-05-23T18:58:09.463Z,102271.13
2023-05-23T19:00:37.229Z,102274.66
2023-05-23T19:03:05.457Z,102271.94
2023-05-23T19:05:33.348Z,102278.44
2023-05-23T19:08:01.120Z,102281.38
2023-05-23T19:10:28.904Z,102283.50
2023-05-23T19:12:56.678Z,102282.06
2023-05-23T19:15:25.845Z,102291.28
2023-05-23T19:17:53.666Z,102304.25
2023-05-23T19:20:22.046Z,102302.81
2023-05-23T19:22:51.416Z,102309.28
2023-05-23T19:25:20.765Z,102308.47
2023-05-23T19:27:48.552Z,102321.22
2023-05-23T19:30:16.715Z,102321.44
2023-05-23T19:32:45.923Z,102328.97
2023-05-23T19:35:16.536Z,102328.97
2023-05-23T19:37:45.179Z,102337.53
2023-05-23T19:40:13.729Z,102337.31
2023-05-23T19:42:41.515Z,102337.53
2023-05-23T19:45:09.972Z,102337.75
2023-05-23T19:47:37.933Z,102347.78
2023-05-23T19:50:08.258Z,102344.47
2023-05-23T19:52:36.034Z,102353.69
2023-05-23T19:55:04.142Z,102354.72
2023-05-23T19:57:32.192Z,102354.94
2023-05-23T20:00:00.014Z,102350.81
2023-05-23T20:02:27.876Z,102353.53
2023-05-23T20:04:55.796Z,102360.22
2023-05-23T20:07:24.954Z,102363.16
2023-05-23T20:09:52.761Z,102363.38
2023-05-23T20:12:20.510Z,102371.75
2023-05-23T20:14:48.315Z,102375.50
2023-05-23T20:17:16.065Z,102380.34
2023-05-23T20:19:43.887Z,102376.19
2023-05-23T20:22:11.619Z,102374.75
2023-05-23T20:24:40.800Z,102387.94
2023-05-23T20:27:08.719Z,102391.31
2023-05-23T20:29:36.532Z,102382.84
2023-05-23T20:32:04.342Z,102394.53
2023-05-23T20:34:32.461Z,102396.63
2023-05-23T20:37:01.501Z,102396.00
2023-05-23T20:39:29.649Z,102406.03
2023-05-23T20:41:59.702Z,102397.06
2023-05-23T20:44:27.510Z,102402.50
2023-05-23T20:46:57.026Z,102407.09
2023-05-23T20:49:24.930Z,102406.47
2023-05-23T20:51:52.785Z,102403.16
2023-05-23T20:54:21.035Z,102398.56
2023-05-23T20:56:48.796Z,102402.31
2023-05-23T20:59:18.006Z,102403.97
2023-05-23T21:01:45.864Z,102377.56
2023-05-23T21:04:13.978Z,102399.00
2023-05-23T21:06:41.720Z,102395.69
2023-05-23T21:09:09.860Z,102394.03
2023-05-23T21:11:37.624Z,102384.44
2023-05-23T21:14:05.424Z,102386.09
2023-05-23T21:16:34.603Z,102393.19
2023-05-23T21:19:02.397Z,102400.72
2023-05-23T21:21:30.219Z,102394.47
2023-05-23T21:23:57.993Z,102396.56
2023-05-23T21:26:25.713Z,102394.91
2023-05-23T21:28:53.460Z,102395.13
2023-05-23T21:31:33.158Z,102393.47
2023-05-23T21:34:22.425Z,102394.28
2023-05-23T21:36:51.926Z,102389.31
2023-05-23T21:39:19.895Z,102388.47
2023-05-23T21:41:47.725Z,102398.72
2023-05-23T21:44:17.610Z,102402.25
2023-05-23T21:46:45.786Z,102397.03
2023-05-23T21:49:15.156Z,102405.19
2023-05-23T21:51:44.088Z,102398.09
2023-05-23T21:54:11.877Z,102399.16
2023-05-23T21:56:39.594Z,102394.16
2023-05-23T21:59:07.708Z,102395.22
2023-05-23T22:01:36.036Z,102391.66
2023-05-23T22:04:03.870Z,102392.94
2023-05-23T22:06:33.540Z,102386.91
2023-05-23T22:09:01.692Z,102388.78
2023-05-23T22:11:33.991Z,102396.91
2023-05-23T22:14:02.266Z,102389.44
2023-05-23T22:16:32.838Z,102386.72
2023-05-23T22:19:02.114Z,102382.34
2023-05-23T22:21:30.154Z,102379.88
2023-05-23T22:23:59.657Z,102383.63
2023-05-23T22:26:28.120Z,102390.31
2023-05-23T22:28:56.493Z,102397.59
2023-05-23T22:31:24.948Z,102397.59
2023-05-23T22:33:52.887Z,102396.16
2023-05-23T22:36:21.984Z,102399.94
2023-05-23T22:38:50.045Z,102401.22
2023-05-23T22:41:19.411Z,102399.56
2023-05-23T22:43:47.485Z,102397.25
2023-05-23T22:46:15.364Z,102406.44
2023-05-23T22:48:43.316Z,102402.28
2023-05-23T22:51:14.843Z,102403.31
2023-05-23T22:53:43.274Z,102402.50
2023-05-23T22:56:11.074Z,102403.53
2023-05-23T22:58:40.190Z,102397.50
2023-05-23T23:01:08.018Z,102394.19
2023-05-23T23:03:36.022Z,102397.50
2023-05-23T23:06:06.168Z,102397.94
2023-05-23T23:08:34.257Z,102396.28
2023-05-23T23:11:02.064Z,102397.31
2023-05-23T23:13:29.890Z,102389.41
2023-05-23T23:15:59.669Z,102385.88
2023-05-23T23:18:27.858Z,102388.78
2023-05-23T23:20:55.593Z,102386.31
2023-05-23T23:23:23.440Z,102390.06
2023-05-23T23:25:52.193Z,102375.94
2023-05-23T23:28:20.751Z,102388.59
2023-05-23T23:30:48.675Z,102386.72
2023-05-23T23:33:17.835Z,102392.97
2023-05-23T23:35:48.592Z,102390.47
2023-05-23T23:38:16.611Z,102391.53
2023-05-23T23:40:45.686Z,102383.63
2023-05-23T23:43:13.934Z,102390.09
2023-05-23T23:45:41.731Z,102393.84
2023-05-23T23:48:09.614Z,102400.31
2023-05-23T23:50:38.869Z,102399.69
2023-05-23T23:53:06.581Z,102402.63
2023-05-23T23:55:34.433Z,102392.81
2023-05-23T23:58:02.174Z,102397.63
